createdAt,value
2022-12-04T00:00:14.678Z,-6.38
2022-12-04T00:05:43.191Z,-6.45
2022-12-04T00:11:14.813Z,-6.44
2022-12-04T00:16:44.992Z,-6.47
2022-12-04T00:22:13.686Z,-6.50
2022-12-04T00:27:42.637Z,-6.55
2022-12-04T00:33:13.113Z,-6.55
2022-12-04T00:38:44.235Z,-6.55
2022-12-04T00:44:13.697Z,-6.59
2022-12-04T00:49:43.846Z,-6.68
2022-12-04T00:55:12.871Z,-6.69
2022-12-04T01:00:43.668Z,-6.71
2022-12-04T01:06:22.174Z,-6.97
2022-12-04T01:11:51.686Z,-6.80
2022-12-04T01:17:20.730Z,-6.86
2022-12-04T01:22:50.911Z,-6.87
2022-12-04T01:28:19.343Z,-6.95
2022-12-04T01:33:49.034Z,-6.96
2022-12-04T01:39:19.638Z,-7.02
2022-12-04T01:45:24.030Z,-7.05
2022-12-04T01:50:59.448Z,-7.04
2022-12-04T01:56:34.217Z,-7.04
2022-12-04T02:02:08.304Z,-7.08
2022-12-04T02:07:39.759Z,-7.05
2022-12-04T02:13:18.179Z,-7.07
2022-12-04T02:18:58.490Z,-7.12
2022-12-04T02:24:49.652Z,-7.08
2022-12-04T02:30:20.124Z,-7.15
2022-12-04T02:35:56.599Z,-7.23
2022-12-04T02:41:31.977Z,-7.26
2022-12-04T02:47:06.404Z,-7.28
2022-12-04T02:52:39.981Z,-7.29
2022-12-04T02:58:13.968Z,-7.38
2022-12-04T03:03:44.008Z,-7.34
2022-12-04T03:09:16.902Z,-7.32
2022-12-04T03:14:53.386Z,-7.42
2022-12-04T03:20:24.914Z,-7.35
2022-12-04T03:26:01.446Z,-7.38
2022-12-04T03:31:40.394Z,-7.55
2022-12-04T03:37:17.001Z,-7.56
2022-12-04T03:42:52.673Z,-7.49
2022-12-04T03:48:25.557Z,-7.55
2022-12-04T03:53:59.000Z,-7.54
2022-12-04T03:59:30.973Z,-7.64
2022-12-04T04:05:02.562Z,-7.61
2022-12-04T04:10:32.625Z,-7.55
2022-12-04T04:16:23.717Z,-7.55
2022-12-04T04:22:12.056Z,-7.58
2022-12-04T04:27:42.271Z,-7.58
2022-12-04T04:33:17.329Z,-7.63
2022-12-04T04:38:53.950Z,-7.59
2022-12-04T04:44:29.291Z,-7.61
2022-12-04T04:50:02.620Z,-7.72
2022-12-04T04:55:34.609Z,-7.72
2022-12-04T05:01:08.645Z,-7.82
2022-12-04T05:06:37.720Z,-7.78
2022-12-04T05:12:07.096Z,-7.76
2022-12-04T05:17:37.639Z,-7.73
2022-12-04T05:23:07.369Z,-7.73
2022-12-04T05:28:36.528Z,-7.84
2022-12-04T05:34:07.332Z,-7.73
2022-12-04T05:39:36.605Z,-7.53
2022-12-04T05:45:06.405Z,-6.85
2022-12-04T05:50:37.313Z,-6.24
2022-12-04T05:56:08.425Z,-6.26
2022-12-04T06:01:38.107Z,-6.63
2022-12-04T06:07:08.029Z,-6.93
2022-12-04T06:12:36.688Z,-5.74
2022-12-04T06:18:06.113Z,-4.75
2022-12-04T06:23:36.221Z,-4.63
2022-12-04T06:29:05.707Z,-3.98
2022-12-04T06:34:37.111Z,-3.91
2022-12-04T06:40:10.909Z,-3.66
2022-12-04T06:45:39.699Z,-3.94
2022-12-04T06:51:11.273Z,-3.40
2022-12-04T06:56:45.065Z,-3.56
2022-12-04T07:02:13.758Z,-3.16
2022-12-04T07:07:42.578Z,-2.91
2022-12-04T07:13:13.305Z,-2.68
2022-12-04T07:18:43.018Z,-1.44
2022-12-04T07:24:16.508Z,-1.53
2022-12-04T07:29:46.938Z,-1.39
2022-12-04T07:35:15.235Z,-1.20
2022-12-04T07:40:44.406Z,-1.86
2022-12-04T07:46:16.809Z,-1.76
2022-12-04T07:51:45.892Z,-1.18
2022-12-04T07:57:14.611Z,-1.37
2022-12-04T08:02:45.110Z,-0.31
2022-12-04T08:08:58.603Z,-0.65
2022-12-04T08:14:28.843Z,-0.75
2022-12-04T08:19:59.190Z,-0.78
2022-12-04T08:25:28.820Z,-1.18
2022-12-04T08:31:03.892Z,-0.58
2022-12-04T08:36:34.859Z,-0.57
2022-12-04T08:42:03.833Z,-0.36
2022-12-04T08:47:32.824Z,-0.41
2022-12-04T08:53:03.493Z,-0.22
2022-12-04T08:58:32.917Z,-0.30
2022-12-04T09:04:01.906Z,0.13
2022-12-04T09:09:32.082Z,-0.12
2022-12-04T09:15:00.327Z,0.37
2022-12-04T09:20:29.340Z,0.23
2022-12-04T09:26:00.337Z,0.66
2022-12-04T09:31:30.346Z,0.78
2022-12-04T09:36:59.986Z,0.50
2022-12-04T09:42:38.788Z,0.77
2022-12-04T09:48:12.068Z,0.63
2022-12-04T09:53:46.683Z,0.09
2022-12-04T09:59:22.208Z,0.13
2022-12-04T10:04:51.966Z,-0.08
2022-12-04T10:10:28.162Z,0.27
2022-12-04T10:16:08.120Z,-0.06
2022-12-04T10:21:50.176Z,0.18
2022-12-04T10:27:23.313Z,0.21
2022-12-04T10:32:59.842Z,0.68
2022-12-04T10:38:38.988Z,0.25
2022-12-04T10:44:14.153Z,0.29
2022-12-04T10:49:44.214Z,0.14
2022-12-04T10:55:12.967Z,-0.14
2022-12-04T11:00:41.521Z,-0.19
2022-12-04T11:06:12.248Z,-0.58
2022-12-04T11:11:40.781Z,-0.56
2022-12-04T11:17:18.192Z,-0.41
2022-12-04T11:22:57.155Z,-0.34
2022-12-04T11:28:46.105Z,-0.49
2022-12-04T11:34:20.212Z,-0.48
2022-12-04T11:39:52.190Z,-0.56
2022-12-04T11:45:23.266Z,-0.52
2022-12-04T11:51:03.545Z,-0.78
2022-12-04T11:56:37.330Z,-1.06
2022-12-04T12:02:26.221Z,-0.70
2022-12-04T12:08:03.251Z,-1.02
2022-12-04T12:13:45.324Z,-0.90
2022-12-04T12:19:37.616Z,-0.74
2022-12-04T12:25:18.949Z,-1.14
2022-12-04T12:31:06.013Z,-1.13
2022-12-04T12:36:43.716Z,-1.13
2022-12-04T12:42:19.848Z,-1.42
2022-12-04T12:47:53.661Z,-1.73
2022-12-04T12:53:27.933Z,-1.77
2022-12-04T12:59:01.521Z,-1.99
2022-12-04T13:04:38.941Z,-2.37
2022-12-04T13:10:14.518Z,-2.36
2022-12-04T13:15:48.872Z,-2.31
2022-12-04T13:21:32.310Z,-2.69
2022-12-04T13:27:08.602Z,-2.87
2022-12-04T13:33:05.569Z,-3.16
2022-12-04T13:38:47.760Z,-3.31
2022-12-04T13:44:23.872Z,-3.46
2022-12-04T13:49:52.779Z,-3.51
2022-12-04T13:55:29.472Z,-3.60
2022-12-04T14:01:04.792Z,-3.68
2022-12-04T14:06:38.733Z,-3.85
2022-12-04T14:12:14.082Z,-3.86
2022-12-04T14:17:59.509Z,-3.94
2022-12-04T14:23:36.604Z,-4.13
2022-12-04T14:29:35.701Z,-4.14
2022-12-04T14:35:05.604Z,-4.41
2022-12-04T14:40:38.436Z,-4.50
2022-12-04T14:46:16.740Z,-4.62
2022-12-04T14:51:53.336Z,-4.68
2022-12-04T14:57:41.120Z,-4.73
2022-12-04T15:03:14.725Z,-4.75
2022-12-04T15:08:50.820Z,-4.98
2022-12-04T15:14:19.864Z,-4.99
2022-12-04T15:19:51.684Z,-5.01
2022-12-04T15:25:23.742Z,-5.00
2022-12-04T15:30:55.325Z,-4.96
2022-12-04T15:36:37.514Z,-5.23
2022-12-04T15:42:08.014Z,-5.25
2022-12-04T15:47:39.852Z,-5.34
2022-12-04T15:53:18.395Z,-5.39
2022-12-04T15:58:55.754Z,-5.44
2022-12-04T16:04:35.518Z,-5.61
2022-12-04T16:10:22.639Z,-5.61
2022-12-04T16:15:52.116Z,-5.69
2022-12-04T16:21:25.880Z,-5.64
2022-12-04T16:27:02.110Z,-5.67
2022-12-04T16:32:33.121Z,-5.56
2022-12-04T16:38:02.233Z,-5.78
2022-12-04T16:43:32.268Z,-5.79
2022-12-04T16:49:07.046Z,-5.97
2022-12-04T16:54:36.864Z,-5.90
2022-12-04T17:00:08.653Z,-5.96
2022-12-04T17:05:37.804Z,-6.02
2022-12-04T17:11:07.238Z,-6.05
2022-12-04T17:16:37.687Z,-6.20
2022-12-04T17:22:08.003Z,-6.24
2022-12-04T17:27:37.706Z,-6.19
2022-12-04T17:33:08.283Z,-6.26
2022-12-04T17:38:37.842Z,-6.18
2022-12-04T17:44:07.090Z,-6.19
2022-12-04T17:49:37.172Z,-6.23
2022-12-04T17:55:08.821Z,-6.20
2022-12-04T18:00:38.454Z,-6.22
2022-12-04T18:06:17.615Z,-6.34
2022-12-04T18:11:48.952Z,-6.35
2022-12-04T18:17:20.675Z,-6.58
2022-12-04T18:22:51.195Z,-6.49
2022-12-04T18:28:19.562Z,-6.66
2022-12-04T18:33:49.691Z,-6.55
2022-12-04T18:39:22.775Z,-6.60
2022-12-04T18:44:52.137Z,-6.64
2022-12-04T18:50:20.805Z,-6.57
2022-12-04T18:55:51.799Z,-6.61
2022-12-04T19:01:20.897Z,-6.71
2022-12-04T19:06:51.997Z,-6.81
2022-12-04T19:12:22.221Z,-6.78
2022-12-04T19:17:50.653Z,-6.86
2022-12-04T19:23:20.206Z,-6.96
2022-12-04T19:28:51.910Z,-6.87
2022-12-04T19:34:21.196Z,-6.81
2022-12-04T19:39:51.189Z,-6.86
2022-12-04T19:45:21.104Z,-6.92
2022-12-04T19:50:49.967Z,-6.88
2022-12-04T19:56:21.416Z,-6.99
2022-12-04T20:01:51.390Z,-6.91
2022-12-04T20:07:20.774Z,-6.92
2022-12-04T20:12:49.967Z,-6.97
2022-12-04T20:18:20.422Z,-7.03
2022-12-04T20:23:49.919Z,-7.03
2022-12-04T20:29:20.099Z,-7.12
2022-12-04T20:34:50.439Z,-7.12
2022-12-04T20:40:20.237Z,-7.18
2022-12-04T20:45:48.691Z,-7.20
2022-12-04T20:51:21.543Z,-7.37
2022-12-04T20:56:53.061Z,-7.43
2022-12-04T21:02:21.856Z,-7.27
2022-12-04T21:07:52.502Z,-7.32
2022-12-04T21:13:39.506Z,-7.34
2022-12-04T21:19:10.951Z,-7.33
2022-12-04T21:24:42.218Z,-7.39
2022-12-04T21:30:12.113Z,-7.47
2022-12-04T21:35:40.965Z,-7.48
2022-12-04T21:41:32.163Z,-7.54
2022-12-04T21:47:01.034Z,-7.53
2022-12-04T21:52:29.763Z,-7.66
2022-12-04T21:58:00.359Z,-7.74
2022-12-04T22:03:28.679Z,-7.72
2022-12-04T22:08:58.084Z,-7.73
2022-12-04T22:14:28.576Z,-7.84
2022-12-04T22:19:57.813Z,-7.83
2022-12-04T22:25:26.879Z,-8.00
2022-12-04T22:30:57.282Z,-8.04
2022-12-04T22:36:28.192Z,-8.07
2022-12-04T22:41:56.906Z,-8.11
2022-12-04T22:47:27.340Z,-8.19
2022-12-04T22:52:55.334Z,-8.17
2022-12-04T22:58:24.120Z,-8.29
2022-12-04T23:03:55.157Z,-8.25
2022-12-04T23:09:23.842Z,-8.18
2022-12-04T23:14:53.114Z,-8.25
2022-12-04T23:20:23.332Z,-8.29
2022-12-04T23:25:51.789Z,-8.37
2022-12-04T23:31:21.313Z,-8.37
2022-12-04T23:36:51.123Z,-8.37
2022-12-04T23:42:20.101Z,-8.40
2022-12-04T23:47:48.977Z,-8.49
2022-12-04T23:53:19.539Z,-8.58
2022-12-04T23:58:50.563Z,-8.63
